sensor_id;sensor_type;location;lat;lon;timestamp;temperature;humidity
18876;DHT22;9570;50.854;13.778;2022-09-17T00:00:49;10.40;99.90
18876;DHT22;9570;50.854;13.778;2022-09-17T00:03:16;10.50;99.90
18876;DHT22;9570;50.854;13.778;2022-09-17T00:05:42;10.50;99.90
18876;DHT22;9570;50.854;13.778;2022-09-17T00:08:11;10.50;99.90
18876;DHT22;9570;50.854;13.778;2022-09-17T00:10:40;10.50;99.90
18876;DHT22;9570;50.854;13.778;2022-09-17T00:13:07;10.50;99.90
18876;DHT22;9570;50.854;13.778;2022-09-17T00:15:39;10.40;99.90
18876;DHT22;9570;50.854;13.778;2022-09-17T00:18:05;10.40;99.90
18876;DHT22;9570;50.854;13.778;2022-09-17T00:20:30;10.50;99.90
18876;DHT22;9570;50.854;13.778;2022-09-17T00:22:56;10.40;99.90
18876;DHT22;9570;50.854;13.778;2022-09-17T00:25:21;10.40;99.90
18876;DHT22;9570;50.854;13.778;2022-09-17T00:27:47;10.50;99.90
18876;DHT22;9570;50.854;13.778;2022-09-17T00:30:13;10.40;99.90
18876;DHT22;9570;50.854;13.778;2022-09-17T00:32:39;10.50;99.90
18876;DHT22;9570;50.854;13.778;2022-09-17T00:35:05;10.50;99.90
18876;DHT22;9570;50.854;13.778;2022-09-17T00:37:30;10.40;99.90
18876;DHT22;9570;50.854;13.778;2022-09-17T00:39:56;10.50;99.90
18876;DHT22;9570;50.854;13.778;2022-09-17T00:42:21;10.50;99.90
18876;DHT22;9570;50.854;13.778;2022-09-17T00:44:55;10.40;99.90
18876;DHT22;9570;50.854;13.778;2022-09-17T00:47:28;10.40;99.90
18876;DHT22;9570;50.854;13.778;2022-09-17T00:52:28;10.40;99.90
18876;DHT22;9570;50.854;13.778;2022-09-17T00:57:39;10.40;99.90
18876;DHT22;9570;50.854;13.778;2022-09-17T01:00:06;10.40;99.90
18876;DHT22;9570;50.854;13.778;2022-09-17T01:02:33;10.40;99.90
18876;DHT22;9570;50.854;13.778;2022-09-17T01:04:59;10.30;99.90
18876;DHT22;9570;50.854;13.778;2022-09-17T01:07:51;10.30;99.90
18876;DHT22;9570;50.854;13.778;2022-09-17T01:10:43;10.30;99.90
18876;DHT22;9570;50.854;13.778;2022-09-17T01:17:09;10.40;99.90
18876;DHT22;9570;50.854;13.778;2022-09-17T01:22:34;10.40;99.90
18876;DHT22;9570;50.854;13.778;2022-09-17T01:25:21;10.40;99.90
18876;DHT22;9570;50.854;13.778;2022-09-17T01:31:03;10.40;99.90
18876;DHT22;9570;50.854;13.778;2022-09-17T01:33:41;10.30;99.90
18876;DHT22;9570;50.854;13.778;2022-09-17T01:39:30;10.30;99.90
18876;DHT22;9570;50.854;13.778;2022-09-17T01:42:15;10.40;99.90
18876;DHT22;9570;50.854;13.778;2022-09-17T01:47:46;10.50;99.90
18876;DHT22;9570;50.854;13.778;2022-09-17T01:50:18;10.50;99.90
18876;DHT22;9570;50.854;13.778;2022-09-17T01:52:48;10.50;99.90
18876;DHT22;9570;50.854;13.778;2022-09-17T01:55:15;10.50;99.90
18876;DHT22;9570;50.854;13.778;2022-09-17T01:57:46;10.40;99.90
18876;DHT22;9570;50.854;13.778;2022-09-17T02:00:15;10.50;99.90
18876;DHT22;9570;50.854;13.778;2022-09-17T02:02:51;10.50;99.90
18876;DHT22;9570;50.854;13.778;2022-09-17T02:05:30;10.40;99.90
18876;DHT22;9570;50.854;13.778;2022-09-17T02:08:22;10.50;99.90
18876;DHT22;9570;50.854;13.778;2022-09-17T02:10:54;10.50;99.90
18876;DHT22;9570;50.854;13.778;2022-09-17T02:13:27;10.40;99.90
18876;DHT22;9570;50.854;13.778;2022-09-17T02:16:06;10.50;99.90
18876;DHT22;9570;50.854;13.778;2022-09-17T02:18:41;10.50;99.90
18876;DHT22;9570;50.854;13.778;2022-09-17T02:23:39;10.50;99.90
18876;DHT22;9570;50.854;13.778;2022-09-17T02:26:10;10.50;99.90
18876;DHT22;9570;50.854;13.778;2022-09-17T02:28:56;10.50;99.90
18876;DHT22;9570;50.854;13.778;2022-09-17T02:31:24;10.60;99.90
18876;DHT22;9570;50.854;13.778;2022-09-17T02:33:52;10.50;99.90
18876;DHT22;9570;50.854;13.778;2022-09-17T02:36:20;10.60;99.90
18876;DHT22;9570;50.854;13.778;2022-09-17T02:38:46;10.60;99.90
18876;DHT22;9570;50.854;13.778;2022-09-17T02:41:19;10.60;99.90
18876;DHT22;9570;50.854;13.778;2022-09-17T02:44:04;10.50;99.90
18876;DHT22;9570;50.854;13.778;2022-09-17T02:46:52;10.50;99.90
18876;DHT22;9570;50.854;13.778;2022-09-17T02:49:42;10.50;99.90
18876;DHT22;9570;50.854;13.778;2022-09-17T02:55:17;10.50;99.90
18876;DHT22;9570;50.854;13.778;2022-09-17T02:58:04;10.50;99.90
18876;DHT22;9570;50.854;13.778;2022-09-17T03:00:31;10.50;99.90
18876;DHT22;9570;50.854;13.778;2022-09-17T03:03:28;10.50;99.90
18876;DHT22;9570;50.854;13.778;2022-09-17T03:05:55;10.40;99.90
18876;DHT22;9570;50.854;13.778;2022-09-17T03:08:27;10.50;99.90
18876;DHT22;9570;50.854;13.778;2022-09-17T03:10:54;10.50;99.90
18876;DHT22;9570;50.854;13.778;2022-09-17T03:13:19;10.50;99.90
18876;DHT22;9570;50.854;13.778;2022-09-17T03:15:45;10.50;99.90
18876;DHT22;9570;50.854;13.778;2022-09-17T03:18:10;10.50;99.90
18876;DHT22;9570;50.854;13.778;2022-09-17T03:20:36;10.50;99.90
18876;DHT22;9570;50.854;13.778;2022-09-17T03:23:01;10.60;99.90
18876;DHT22;9570;50.854;13.778;2022-09-17T03:25:26;10.50;99.90
18876;DHT22;9570;50.854;13.778;2022-09-17T03:27:52;10.50;99.90
18876;DHT22;9570;50.854;13.778;2022-09-17T03:30:18;10.40;99.90
18876;DHT22;9570;50.854;13.778;2022-09-17T03:32:44;10.40;99.90
18876;DHT22;9570;50.854;13.778;2022-09-17T03:35:09;10.40;99.90
18876;DHT22;9570;50.854;13.778;2022-09-17T03:37:35;10.50;99.90
18876;DHT22;9570;50.854;13.778;2022-09-17T03:40:01;10.40;99.90
18876;DHT22;9570;50.854;13.778;2022-09-17T03:42:26;10.50;99.90
18876;DHT22;9570;50.854;13.778;2022-09-17T03:44:52;10.50;99.90
18876;DHT22;9570;50.854;13.778;2022-09-17T03:47:17;10.40;99.90
18876;DHT22;9570;50.854;13.778;2022-09-17T03:49:43;10.40;99.90
18876;DHT22;9570;50.854;13.778;2022-09-17T03:52:08;10.40;99.90
18876;DHT22;9570;50.854;13.778;2022-09-17T03:54:34;10.40;99.90
18876;DHT22;9570;50.854;13.778;2022-09-17T03:56:59;10.30;99.90
18876;DHT22;9570;50.854;13.778;2022-09-17T03:59:24;10.40;99.90
18876;DHT22;9570;50.854;13.778;2022-09-17T04:01:51;10.50;99.90
18876;DHT22;9570;50.854;13.778;2022-09-17T04:04:16;10.50;99.90
18876;DHT22;9570;50.854;13.778;2022-09-17T04:06:42;10.50;99.90
18876;DHT22;9570;50.854;13.778;2022-09-17T04:09:07;10.40;99.90
18876;DHT22;9570;50.854;13.778;2022-09-17T04:11:33;10.40;99.90
18876;DHT22;9570;50.854;13.778;2022-09-17T04:13:58;10.50;99.90
18876;DHT22;9570;50.854;13.778;2022-09-17T04:16:24;10.50;99.90
18876;DHT22;9570;50.854;13.778;2022-09-17T04:18:49;10.40;99.90
18876;DHT22;9570;50.854;13.778;2022-09-17T04:21:15;10.40;99.90
18876;DHT22;9570;50.854;13.778;2022-09-17T04:23:40;10.50;99.90
18876;DHT22;9570;50.854;13.778;2022-09-17T04:26:06;10.40;99.90
18876;DHT22;9570;50.854;13.778;2022-09-17T04:28:31;10.30;99.90
18876;DHT22;9570;50.854;13.778;2022-09-17T04:30:57;10.40;99.90
18876;DHT22;9570;50.854;13.778;2022-09-17T04:33:22;10.40;99.90
18876;DHT22;9570;50.854;13.778;2022-09-17T04:35:48;10.40;99.90
18876;DHT22;9570;50.854;13.778;2022-09-17T04:38:13;10.40;99.90
18876;DHT22;9570;50.854;13.778;2022-09-17T04:40:43;10.50;99.90
18876;DHT22;9570;50.854;13.778;2022-09-17T04:43:09;10.50;99.90
18876;DHT22;9570;50.854;13.778;2022-09-17T04:45:35;10.50;99.90
18876;DHT22;9570;50.854;13.778;2022-09-17T04:48:00;10.50;99.90
18876;DHT22;9570;50.854;13.778;2022-09-17T04:50:26;10.50;99.90
18876;DHT22;9570;50.854;13.778;2022-09-17T04:52:52;10.50;99.90
18876;DHT22;9570;50.854;13.778;2022-09-17T04:55:17;10.50;99.90
18876;DHT22;9570;50.854;13.778;2022-09-17T04:57:51;10.50;99.90
18876;DHT22;9570;50.854;13.778;2022-09-17T05:00:18;10.40;99.90
18876;DHT22;9570;50.854;13.778;2022-09-17T05:02:46;10.40;99.90
18876;DHT22;9570;50.854;13.778;2022-09-17T05:05:12;10.40;99.90
18876;DHT22;9570;50.854;13.778;2022-09-17T05:07:38;10.40;99.90
18876;DHT22;9570;50.854;13.778;2022-09-17T05:10:04;10.50;99.90
18876;DHT22;9570;50.854;13.778;2022-09-17T05:12:30;10.50;99.90
18876;DHT22;9570;50.854;13.778;2022-09-17T05:14:56;10.50;99.90
18876;DHT22;9570;50.854;13.778;2022-09-17T05:17:21;10.50;99.90
18876;DHT22;9570;50.854;13.778;2022-09-17T05:19:46;10.40;99.90
18876;DHT22;9570;50.854;13.778;2022-09-17T05:22:12;10.40;99.90
18876;DHT22;9570;50.854;13.778;2022-09-17T05:24:37;10.40;99.90
18876;DHT22;9570;50.854;13.778;2022-09-17T05:27:05;10.40;99.90
18876;DHT22;9570;50.854;13.778;2022-09-17T05:29:30;10.40;99.90
18876;DHT22;9570;50.854;13.778;2022-09-17T05:31:56;10.40;99.90
18876;DHT22;9570;50.854;13.778;2022-09-17T05:34:21;10.50;99.90
18876;DHT22;9570;50.854;13.778;2022-09-17T05:36:47;10.40;99.90
18876;DHT22;9570;50.854;13.778;2022-09-17T05:39:13;10.30;99.90
18876;DHT22;9570;50.854;13.778;2022-09-17T05:41:39;10.30;99.90
18876;DHT22;9570;50.854;13.778;2022-09-17T05:44:04;10.40;99.90
18876;DHT22;9570;50.854;13.778;2022-09-17T05:46:30;10.40;99.90
18876;DHT22;9570;50.854;13.778;2022-09-17T05:48:55;10.50;99.90
18876;DHT22;9570;50.854;13.778;2022-09-17T05:51:22;10.60;99.90
18876;DHT22;9570;50.854;13.778;2022-09-17T05:53:47;10.70;99.90
18876;DHT22;9570;50.854;13.778;2022-09-17T05:56:13;10.60;99.90
18876;DHT22;9570;50.854;13.778;2022-09-17T05:58:38;10.60;99.90
18876;DHT22;9570;50.854;13.778;2022-09-17T06:01:04;10.70;99.90
18876;DHT22;9570;50.854;13.778;2022-09-17T06:03:29;10.60;99.90
18876;DHT22;9570;50.854;13.778;2022-09-17T06:05:56;10.60;99.90
18876;DHT22;9570;50.854;13.778;2022-09-17T06:08:24;10.60;99.90
18876;DHT22;9570;50.854;13.778;2022-09-17T06:10:49;10.70;99.90
18876;DHT22;9570;50.854;13.778;2022-09-17T06:13:16;10.70;99.90
18876;DHT22;9570;50.854;13.778;2022-09-17T06:15:42;10.70;99.90
18876;DHT22;9570;50.854;13.778;2022-09-17T06:18:13;10.80;99.90
18876;DHT22;9570;50.854;13.778;2022-09-17T06:20:38;10.80;99.90
18876;DHT22;9570;50.854;13.778;2022-09-17T06:23:03;10.80;99.90
18876;DHT22;9570;50.854;13.778;2022-09-17T06:25:29;10.80;99.90
18876;DHT22;9570;50.854;13.778;2022-09-17T06:27:56;10.90;99.90
18876;DHT22;9570;50.854;13.778;2022-09-17T06:30:21;11.00;99.90
18876;DHT22;9570;50.854;13.778;2022-09-17T06:32:46;11.00;99.90
18876;DHT22;9570;50.854;13.778;2022-09-17T06:35:12;11.00;99.90
18876;DHT22;9570;50.854;13.778;2022-09-17T06:37:37;11.10;99.90
18876;DHT22;9570;50.854;13.778;2022-09-17T06:40:05;11.10;99.90
18876;DHT22;9570;50.854;13.778;2022-09-17T06:42:31;11.20;99.90
18876;DHT22;9570;50.854;13.778;2022-09-17T06:44:57;11.10;99.90
18876;DHT22;9570;50.854;13.778;2022-09-17T06:47:23;11.20;99.90
18876;DHT22;9570;50.854;13.778;2022-09-17T06:49:49;11.20;99.90
18876;DHT22;9570;50.854;13.778;2022-09-17T06:52:14;11.30;99.90
18876;DHT22;9570;50.854;13.778;2022-09-17T06:54:40;11.30;99.90
18876;DHT22;9570;50.854;13.778;2022-09-17T06:57:05;11.30;99.90
18876;DHT22;9570;50.854;13.778;2022-09-17T06:59:31;11.30;99.90
18876;DHT22;9570;50.854;13.778;2022-09-17T07:01:56;11.30;99.90
18876;DHT22;9570;50.854;13.778;2022-09-17T07:04:22;11.30;99.90
18876;DHT22;9570;50.854;13.778;2022-09-17T07:06:47;11.20;99.90
18876;DHT22;9570;50.854;13.778;2022-09-17T07:09:13;11.20;99.90
18876;DHT22;9570;50.854;13.778;2022-09-17T07:11:38;11.20;99.90
18876;DHT22;9570;50.854;13.778;2022-09-17T07:14:04;11.30;99.90
18876;DHT22;9570;50.854;13.778;2022-09-17T07:16:31;11.40;99.90
18876;DHT22;9570;50.854;13.778;2022-09-17T07:18:57;11.40;99.90
18876;DHT22;9570;50.854;13.778;2022-09-17T07:21:22;11.50;99.90
18876;DHT22;9570;50.854;13.778;2022-09-17T07:23:50;11.50;99.90
18876;DHT22;9570;50.854;13.778;2022-09-17T07:26:15;11.40;99.90
18876;DHT22;9570;50.854;13.778;2022-09-17T07:28:42;11.40;99.90
18876;DHT22;9570;50.854;13.778;2022-09-17T07:31:11;11.40;99.90
18876;DHT22;9570;50.854;13.778;2022-09-17T07:33:38;11.40;99.90
18876;DHT22;9570;50.854;13.778;2022-09-17T07:36:06;11.30;99.90
18876;DHT22;9570;50.854;13.778;2022-09-17T07:38:32;11.30;99.90
18876;DHT22;9570;50.854;13.778;2022-09-17T07:43:27;11.10;99.90
18876;DHT22;9570;50.854;13.778;2022-09-17T07:45:55;11.20;99.90
18876;DHT22;9570;50.854;13.778;2022-09-17T07:48:21;11.40;99.90
18876;DHT22;9570;50.854;13.778;2022-09-17T07:50:46;11.40;99.90
18876;DHT22;9570;50.854;13.778;2022-09-17T07:53:13;11.20;99.90
18876;DHT22;9570;50.854;13.778;2022-09-17T07:55:38;11.00;99.90
18876;DHT22;9570;50.854;13.778;2022-09-17T07:58:04;11.00;99.90
18876;DHT22;9570;50.854;13.778;2022-09-17T08:00:29;11.10;99.90
18876;DHT22;9570;50.854;13.778;2022-09-17T08:02:55;11.20;99.90
18876;DHT22;9570;50.854;13.778;2022-09-17T08:05:22;11.10;99.90
18876;DHT22;9570;50.854;13.778;2022-09-17T08:07:53;11.10;99.90
18876;DHT22;9570;50.854;13.778;2022-09-17T08:10:20;11.10;99.90
18876;DHT22;9570;50.854;13.778;2022-09-17T08:12:47;11.10;99.90
18876;DHT22;9570;50.854;13.778;2022-09-17T08:15:13;11.20;99.90
18876;DHT22;9570;50.854;13.778;2022-09-17T08:17:43;11.30;99.90
18876;DHT22;9570;50.854;13.778;2022-09-17T08:20:08;11.30;99.90
18876;DHT22;9570;50.854;13.778;2022-09-17T08:22:34;11.20;99.90
18876;DHT22;9570;50.854;13.778;2022-09-17T08:24:59;11.10;99.90
18876;DHT22;9570;50.854;13.778;2022-09-17T08:27:25;11.10;99.90
18876;DHT22;9570;50.854;13.778;2022-09-17T08:29:50;11.00;99.90
18876;DHT22;9570;50.854;13.778;2022-09-17T08:32:16;11.20;99.90
18876;DHT22;9570;50.854;13.778;2022-09-17T08:34:41;11.20;99.90
18876;DHT22;9570;50.854;13.778;2022-09-17T08:37:07;11.30;99.90
18876;DHT22;9570;50.854;13.778;2022-09-17T08:39:32;11.30;99.90
18876;DHT22;9570;50.854;13.778;2022-09-17T08:45:04;11.40;99.90
18876;DHT22;9570;50.854;13.778;2022-09-17T08:47:36;11.40;99.90
18876;DHT22;9570;50.854;13.778;2022-09-17T08:50:25;11.30;99.90
18876;DHT22;9570;50.854;13.778;2022-09-17T08:55:39;11.40;99.90
18876;DHT22;9570;50.854;13.778;2022-09-17T08:58:14;11.50;99.90
18876;DHT22;9570;50.854;13.778;2022-09-17T09:00:50;11.50;99.90
18876;DHT22;9570;50.854;13.778;2022-09-17T09:03:30;11.50;99.90
18876;DHT22;9570;50.854;13.778;2022-09-17T09:06:02;11.60;99.90
18876;DHT22;9570;50.854;13.778;2022-09-17T09:08:34;11.80;99.90
18876;DHT22;9570;50.854;13.778;2022-09-17T09:11:03;12.00;99.90
18876;DHT22;9570;50.854;13.778;2022-09-17T09:13:35;12.20;99.90
18876;DHT22;9570;50.854;13.778;2022-09-17T09:16:13;12.20;99.90
18876;DHT22;9570;50.854;13.778;2022-09-17T09:18:40;12.20;99.90
18876;DHT22;9570;50.854;13.778;2022-09-17T09:21:26;12.40;99.90
18876;DHT22;9570;50.854;13.778;2022-09-17T09:23:56;12.50;99.90
18876;DHT22;9570;50.854;13.778;2022-09-17T09:26:47;12.40;99.90
18876;DHT22;9570;50.854;13.778;2022-09-17T09:29:36;12.40;99.90
18876;DHT22;9570;50.854;13.778;2022-09-17T09:32:33;12.30;99.90
18876;DHT22;9570;50.854;13.778;2022-09-17T09:35:15;12.30;99.90
18876;DHT22;9570;50.854;13.778;2022-09-17T09:37:45;12.30;99.90
18876;DHT22;9570;50.854;13.778;2022-09-17T09:40:24;12.60;99.90
18876;DHT22;9570;50.854;13.778;2022-09-17T09:42:52;12.80;99.90
18876;DHT22;9570;50.854;13.778;2022-09-17T09:48:21;13.50;99.90
18876;DHT22;9570;50.854;13.778;2022-09-17T09:51:01;13.70;99.90
18876;DHT22;9570;50.854;13.778;2022-09-17T09:53:41;13.80;99.90
18876;DHT22;9570;50.854;13.778;2022-09-17T09:56:27;13.50;99.90
18876;DHT22;9570;50.854;13.778;2022-09-17T09:58:57;13.30;99.90
18876;DHT22;9570;50.854;13.778;2022-09-17T10:01:26;13.10;99.90
18876;DHT22;9570;50.854;13.778;2022-09-17T10:03:52;13.10;99.90
18876;DHT22;9570;50.854;13.778;2022-09-17T10:06:18;13.20;99.90
18876;DHT22;9570;50.854;13.778;2022-09-17T10:11:27;13.70;99.90
18876;DHT22;9570;50.854;13.778;2022-09-17T10:13:52;13.70;99.90
18876;DHT22;9570;50.854;13.778;2022-09-17T10:16:37;13.60;99.90
18876;DHT22;9570;50.854;13.778;2022-09-17T10:21:32;13.50;99.90
18876;DHT22;9570;50.854;13.778;2022-09-17T10:23:59;13.40;99.90
18876;DHT22;9570;50.854;13.778;2022-09-17T10:26:30;13.00;99.90
18876;DHT22;9570;50.854;13.778;2022-09-17T10:28:59;12.90;99.90
18876;DHT22;9570;50.854;13.778;2022-09-17T10:31:25;12.80;99.90
18876;DHT22;9570;50.854;13.778;2022-09-17T10:34:00;12.90;99.90
18876;DHT22;9570;50.854;13.778;2022-09-17T10:36:43;12.90;99.90
18876;DHT22;9570;50.854;13.778;2022-09-17T10:42:08;13.50;99.90
18876;DHT22;9570;50.854;13.778;2022-09-17T10:44:37;13.80;99.90
18876;DHT22;9570;50.854;13.778;2022-09-17T10:47:09;13.70;99.90
18876;DHT22;9570;50.854;13.778;2022-09-17T10:49:42;13.40;99.90
18876;DHT22;9570;50.854;13.778;2022-09-17T10:52:31;13.60;99.90
18876;DHT22;9570;50.854;13.778;2022-09-17T11:01:09;13.50;99.90
18876;DHT22;9570;50.854;13.778;2022-09-17T11:07:05;12.80;99.90
18876;DHT22;9570;50.854;13.778;2022-09-17T11:09:42;12.80;99.90
18876;DHT22;9570;50.854;13.778;2022-09-17T11:18:00;13.10;99.90
18876;DHT22;9570;50.854;13.778;2022-09-17T11:21:06;13.50;99.90
18876;DHT22;9570;50.854;13.778;2022-09-17T11:26:41;13.90;99.90
18876;DHT22;9570;50.854;13.778;2022-09-17T11:37:38;13.60;99.90
18876;DHT22;9570;50.854;13.778;2022-09-17T11:42:38;13.30;99.90
18876;DHT22;9570;50.854;13.778;2022-09-17T11:45:21;13.30;99.90
18876;DHT22;9570;50.854;13.778;2022-09-17T11:48:06;13.20;99.90
18876;DHT22;9570;50.854;13.778;2022-09-17T11:50:51;13.20;99.90
18876;DHT22;9570;50.854;13.778;2022-09-17T11:53:35;13.00;99.90
18876;DHT22;9570;50.854;13.778;2022-09-17T11:56:28;13.00;99.90
18876;DHT22;9570;50.854;13.778;2022-09-17T12:04:44;13.20;99.90
18876;DHT22;9570;50.854;13.778;2022-09-17T12:15:33;13.30;99.90
18876;DHT22;9570;50.854;13.778;2022-09-17T12:20:47;13.30;99.90
18876;DHT22;9570;50.854;13.778;2022-09-17T12:23:30;13.20;99.90
18876;DHT22;9570;50.854;13.778;2022-09-17T12:26:08;13.30;99.90
18876;DHT22;9570;50.854;13.778;2022-09-17T12:37:10;13.40;99.90
18876;DHT22;9570;50.854;13.778;2022-09-17T12:40:16;13.50;99.90
18876;DHT22;9570;50.854;13.778;2022-09-17T12:43:30;13.40;99.90
18876;DHT22;9570;50.854;13.778;2022-09-17T12:46:12;13.30;99.90
18876;DHT22;9570;50.854;13.778;2022-09-17T12:48:53;13.20;99.90
18876;DHT22;9570;50.854;13.778;2022-09-17T12:54:36;13.10;99.90
18876;DHT22;9570;50.854;13.778;2022-09-17T12:57:38;12.90;99.90
18876;DHT22;9570;50.854;13.778;2022-09-17T13:00:12;12.90;99.90
18876;DHT22;9570;50.854;13.778;2022-09-17T13:05:33;13.00;99.90
18876;DHT22;9570;50.854;13.778;2022-09-17T13:13:33;13.40;99.90
18876;DHT22;9570;50.854;13.778;2022-09-17T13:16:24;13.30;99.90
18876;DHT22;9570;50.854;13.778;2022-09-17T13:23:59;13.10;99.90
18876;DHT22;9570;50.854;13.778;2022-09-17T13:26:34;13.20;99.90
18876;DHT22;9570;50.854;13.778;2022-09-17T13:29:00;13.10;99.90
18876;DHT22;9570;50.854;13.778;2022-09-17T13:36:50;13.00;99.90
18876;DHT22;9570;50.854;13.778;2022-09-17T13:39:43;13.10;99.90
18876;DHT22;9570;50.854;13.778;2022-09-17T13:42:20;13.30;99.90
18876;DHT22;9570;50.854;13.778;2022-09-17T13:45:06;13.40;99.90
18876;DHT22;9570;50.854;13.778;2022-09-17T13:47:39;13.30;99.90
18876;DHT22;9570;50.854;13.778;2022-09-17T13:50:27;13.30;99.90
18876;DHT22;9570;50.854;13.778;2022-09-17T13:52:57;13.20;99.90
18876;DHT22;9570;50.854;13.778;2022-09-17T13:55:38;13.20;99.90
18876;DHT22;9570;50.854;13.778;2022-09-17T13:58:10;13.10;99.90
18876;DHT22;9570;50.854;13.778;2022-09-17T14:00:56;13.20;99.90
18876;DHT22;9570;50.854;13.778;2022-09-17T14:08:46;13.20;99.90
18876;DHT22;9570;50.854;13.778;2022-09-17T14:11:37;13.20;99.90
18876;DHT22;9570;50.854;13.778;2022-09-17T14:19:18;13.20;99.90
18876;DHT22;9570;50.854;13.778;2022-09-17T14:21:57;13.30;99.90
18876;DHT22;9570;50.854;13.778;2022-09-17T14:24:31;13.40;99.90
18876;DHT22;9570;50.854;13.778;2022-09-17T14:30:00;13.50;99.90
18876;DHT22;9570;50.854;13.778;2022-09-17T14:32:30;13.50;99.90
18876;DHT22;9570;50.854;13.778;2022-09-17T14:35:01;13.50;99.90
18876;DHT22;9570;50.854;13.778;2022-09-17T14:37:28;13.40;99.90
18876;DHT22;9570;50.854;13.778;2022-09-17T14:39:54;13.40;99.90
18876;DHT22;9570;50.854;13.778;2022-09-17T14:42:23;13.60;99.90
18876;DHT22;9570;50.854;13.778;2022-09-17T14:44:56;13.40;99.90
18876;DHT22;9570;50.854;13.778;2022-09-17T14:47:23;13.40;99.90
18876;DHT22;9570;50.854;13.778;2022-09-17T14:49:49;13.60;99.90
18876;DHT22;9570;50.854;13.778;2022-09-17T14:55:18;13.50;99.90
18876;DHT22;9570;50.854;13.778;2022-09-17T14:57:48;13.50;99.90
18876;DHT22;9570;50.854;13.778;2022-09-17T15:00:25;13.40;99.90
18876;DHT22;9570;50.854;13.778;2022-09-17T15:02:54;13.20;99.90
18876;DHT22;9570;50.854;13.778;2022-09-17T15:05:31;13.10;99.90
18876;DHT22;9570;50.854;13.778;2022-09-17T15:10:30;12.90;99.90
18876;DHT22;9570;50.854;13.778;2022-09-17T15:12:55;12.90;99.90
18876;DHT22;9570;50.854;13.778;2022-09-17T15:15:24;12.90;99.90
18876;DHT22;9570;50.854;13.778;2022-09-17T15:17:51;12.90;99.90
18876;DHT22;9570;50.854;13.778;2022-09-17T15:20:23;12.90;99.90
18876;DHT22;9570;50.854;13.778;2022-09-17T15:25:38;12.90;99.90
18876;DHT22;9570;50.854;13.778;2022-09-17T15:28:23;13.00;99.90
18876;DHT22;9570;50.854;13.778;2022-09-17T15:30:49;13.10;99.90
18876;DHT22;9570;50.854;13.778;2022-09-17T15:33:15;13.00;99.90
18876;DHT22;9570;50.854;13.778;2022-09-17T15:35:58;13.00;99.90
18876;DHT22;9570;50.854;13.778;2022-09-17T15:38:26;12.90;99.90
18876;DHT22;9570;50.854;13.778;2022-09-17T15:40:52;13.00;99.90
18876;DHT22;9570;50.854;13.778;2022-09-17T15:43:29;13.00;99.90
18876;DHT22;9570;50.854;13.778;2022-09-17T15:45:56;13.00;99.90
18876;DHT22;9570;50.854;13.778;2022-09-17T15:50:58;12.90;99.90
18876;DHT22;9570;50.854;13.778;2022-09-17T15:53:29;12.90;99.90
18876;DHT22;9570;50.854;13.778;2022-09-17T16:08:43;12.50;99.90
18876;DHT22;9570;50.854;13.778;2022-09-17T16:11:12;12.40;99.90
18876;DHT22;9570;50.854;13.778;2022-09-17T16:13:37;12.30;99.90
18876;DHT22;9570;50.854;13.778;2022-09-17T16:16:03;12.30;99.90
18876;DHT22;9570;50.854;13.778;2022-09-17T16:18:28;12.20;99.90
18876;DHT22;9570;50.854;13.778;2022-09-17T16:20:54;12.20;99.90
18876;DHT22;9570;50.854;13.778;2022-09-17T16:23:19;12.20;99.90
18876;DHT22;9570;50.854;13.778;2022-09-17T16:25:45;12.20;99.90
18876;DHT22;9570;50.854;13.778;2022-09-17T16:28:13;12.20;99.90
18876;DHT22;9570;50.854;13.778;2022-09-17T16:30:45;12.20;99.90
18876;DHT22;9570;50.854;13.778;2022-09-17T16:33:11;12.20;99.90
18876;DHT22;9570;50.854;13.778;2022-09-17T16:35:37;12.20;99.90
18876;DHT22;9570;50.854;13.778;2022-09-17T16:38:03;12.10;99.90
18876;DHT22;9570;50.854;13.778;2022-09-17T16:40:29;12.10;99.90
18876;DHT22;9570;50.854;13.778;2022-09-17T16:42:56;12.10;99.90
18876;DHT22;9570;50.854;13.778;2022-09-17T16:45:23;12.10;99.90
18876;DHT22;9570;50.854;13.778;2022-09-17T16:47:49;12.10;99.90
18876;DHT22;9570;50.854;13.778;2022-09-17T16:50:15;12.10;99.90
18876;DHT22;9570;50.854;13.778;2022-09-17T16:52:42;12.00;99.90
18876;DHT22;9570;50.854;13.778;2022-09-17T16:55:08;12.00;99.90
18876;DHT22;9570;50.854;13.778;2022-09-17T16:57:33;12.00;99.90
18876;DHT22;9570;50.854;13.778;2022-09-17T16:59:59;11.80;99.90
18876;DHT22;9570;50.854;13.778;2022-09-17T17:02:25;11.70;99.90
18876;DHT22;9570;50.854;13.778;2022-09-17T17:04:50;11.60;99.90
18876;DHT22;9570;50.854;13.778;2022-09-17T17:07:16;11.60;99.90
18876;DHT22;9570;50.854;13.778;2022-09-17T17:09:41;11.50;99.90
18876;DHT22;9570;50.854;13.778;2022-09-17T17:12:07;11.50;99.90
18876;DHT22;9570;50.854;13.778;2022-09-17T17:14:33;11.30;99.90
18876;DHT22;9570;50.854;13.778;2022-09-17T17:16:58;11.30;99.90
18876;DHT22;9570;50.854;13.778;2022-09-17T17:19:24;11.40;99.90
18876;DHT22;9570;50.854;13.778;2022-09-17T17:21:50;11.30;99.90
18876;DHT22;9570;50.854;13.778;2022-09-17T17:24:17;11.20;99.90
18876;DHT22;9570;50.854;13.778;2022-09-17T17:26:43;11.10;99.90
18876;DHT22;9570;50.854;13.778;2022-09-17T17:29:08;11.20;99.90
18876;DHT22;9570;50.854;13.778;2022-09-17T17:31:34;11.00;99.90
18876;DHT22;9570;50.854;13.778;2022-09-17T17:34:00;11.00;99.90
18876;DHT22;9570;50.854;13.778;2022-09-17T17:36:26;11.00;99.90
18876;DHT22;9570;50.854;13.778;2022-09-17T17:38:59;11.00;99.90
18876;DHT22;9570;50.854;13.778;2022-09-17T17:41:25;11.00;99.90
18876;DHT22;9570;50.854;13.778;2022-09-17T17:43:55;11.00;99.90
18876;DHT22;9570;50.854;13.778;2022-09-17T17:46:22;11.00;99.90
18876;DHT22;9570;50.854;13.778;2022-09-17T17:48:49;10.80;99.90
18876;DHT22;9570;50.854;13.778;2022-09-17T17:51:15;10.80;99.90
18876;DHT22;9570;50.854;13.778;2022-09-17T17:53:43;10.70;99.90
18876;DHT22;9570;50.854;13.778;2022-09-17T17:56:09;10.60;99.90
18876;DHT22;9570;50.854;13.778;2022-09-17T17:58:35;10.70;99.90
18876;DHT22;9570;50.854;13.778;2022-09-17T18:01:15;10.60;99.90
18876;DHT22;9570;50.854;13.778;2022-09-17T18:03:41;10.60;99.90
18876;DHT22;9570;50.854;13.778;2022-09-17T18:06:07;10.60;99.90
18876;DHT22;9570;50.854;13.778;2022-09-17T18:08:38;10.60;99.90
18876;DHT22;9570;50.854;13.778;2022-09-17T18:11:04;10.60;99.90
18876;DHT22;9570;50.854;13.778;2022-09-17T18:13:32;10.60;99.90
18876;DHT22;9570;50.854;13.778;2022-09-17T18:15:59;10.60;99.90
18876;DHT22;9570;50.854;13.778;2022-09-17T18:18:30;10.50;99.90
18876;DHT22;9570;50.854;13.778;2022-09-17T18:21:00;10.50;99.90
18876;DHT22;9570;50.854;13.778;2022-09-17T18:23:26;10.40;99.90
18876;DHT22;9570;50.854;13.778;2022-09-17T18:25:53;10.40;99.90
18876;DHT22;9570;50.854;13.778;2022-09-17T18:28:19;10.40;99.90